Station Historical Data
Daily Summary for August 7, 2017 Units:  Both    English   Metric
« Previous Day
Next Day »
Daily Weekly Monthly Yearly Custom
  High: Low: Average:
Temperature: 76.7 °F /  24.8 °C 59.0 °F /  15 °C 66.1 °F /  18.9 °C
Dew Point: 64.6 °F /  18.1 °C 55.6 °F /  13.1 °C 59.6 °F /  15.3 °C
Humidity: 89% 56% 80%
Wind Speed: 9.0mph /  14.5km/h - 0.9mph /  1.4km/h
Wind Gust: 13.0mph /  20.9km/h - -
Wind- - South
Pressure: 30.04 in /  1017.2 hPa 29.92 in /  1013.1 hPa -
Precipitation: 0.00 in /  0 mm    
Historical Graphs
 
 
Tabular Data for August 7, 2017
Time Temperature Dew Point Pressure Wind Wind Speed Wind Gust Humidity Rainfall Rate (Hourly)
00:04 67.1 °F /  19.5 °C 60.7 °F /  15.9 °C 30.04in /  1017.2hPa Calm     80% 0.00in /  0mm
00:09 66.7 °F /  19.3 °C 60.3 °F /  15.7 °C 30.04in /  1017.2hPa Calm   2.0mph /  3.2km/h 80% 0.00in /  0mm
00:14 66.2 °F /  19 °C 60.2 °F /  15.7 °C 30.04in /  1017.2hPa Calm   2.0mph /  3.2km/h 81% 0.00in /  0mm
00:19 65.8 °F /  18.8 °C 59.8 °F /  15.4 °C 30.03in /  1016.8hPa Calm   2.0mph /  3.2km/h 81% 0.00in /  0mm
00:24 65.5 °F /  18.6 °C 59.9 °F /  15.5 °C 30.03in /  1016.8hPa Calm     82% 0.00in /  0mm
00:29 65.1 °F /  18.4 °C 59.5 °F /  15.3 °C 30.03in /  1016.8hPa Calm     82% 0.00in /  0mm
00:34 64.8 °F /  18.2 °C 59.5 °F /  15.3 °C 30.04in /  1017.2hPa Calm     83% 0.00in /  0mm
00:39 64.5 °F /  18.1 °C 59.2 °F /  15.1 °C 30.03in /  1016.8hPa Calm     83% 0.00in /  0mm
00:44 64.3 °F /  17.9 °C 59.4 °F /  15.2 °C 30.04in /  1017.2hPa Calm     84% 0.00in /  0mm
00:49 64.2 °F /  17.9 °C 59.3 °F /  15.2 °C 30.03in /  1016.8hPa Calm     84% 0.00in /  0mm
00:54 63.9 °F /  17.7 °C 59.0 °F /  15 °C 30.03in /  1016.8hPa Calm     84% 0.00in /  0mm
00:59 63.6 °F /  17.6 °C 58.7 °F /  14.8 °C 30.03in /  1016.8hPa Calm     84% 0.00in /  0mm
01:04 63.5 °F /  17.5 °C 58.9 °F /  14.9 °C 30.03in /  1016.8hPa Calm     85% 0.00in /  0mm
01:09 63.2 °F /  17.3 °C 58.6 °F /  14.8 °C 30.03in /  1016.8hPa Calm     85% 0.00in /  0mm
01:14 63.2 °F /  17.3 °C 58.9 °F /  14.9 °C 30.03in /  1016.8hPa Calm     86% 0.00in /  0mm
01:19 63.1 °F /  17.3 °C 58.5 °F /  14.7 °C 30.03in /  1016.8hPa Calm     85% 0.00in /  0mm
01:24 63.1 °F /  17.3 °C 58.8 °F /  14.9 °C 30.03in /  1016.8hPa Calm     86% 0.00in /  0mm
01:29 62.9 °F /  17.2 °C 58.6 °F /  14.8 °C 30.03in /  1016.8hPa Calm     86% 0.00in /  0mm
01:34 62.9 °F /  17.2 °C 58.6 °F /  14.8 °C 30.03in /  1016.8hPa Calm     86% 0.00in /  0mm
01:39 62.7 °F /  17.1 °C 58.1 °F /  14.5 °C 30.03in /  1016.8hPa Calm     85% 0.00in /  0mm
01:44 62.5 °F /  16.9 °C 58.3 °F /  14.6 °C 30.03in /  1016.8hPa Calm     86% 0.00in /  0mm
01:49 62.5 °F /  16.9 °C 58.3 °F /  14.6 °C 30.03in /  1016.8hPa Calm     86% 0.00in /  0mm
01:54 62.5 °F /  16.9 °C 58.3 °F /  14.6 °C 30.03in /  1016.8hPa Calm     86% 0.00in /  0mm
01:59 62.5 °F /  16.9 °C 58.3 °F /  14.6 °C 30.02in /  1016.5hPa Calm     86% 0.00in /  0mm
02:04 62.4 °F /  16.9 °C 57.8 °F /  14.3 °C 30.02in /  1016.5hPa Calm     85% 0.00in /  0mm
02:09 62.2 °F /  16.8 °C 57.6 °F /  14.2 °C 30.02in /  1016.5hPa Calm     85% 0.00in /  0mm
02:14 62.0 °F /  16.7 °C 57.4 °F /  14.1 °C 30.03in /  1016.8hPa Calm     85% 0.00in /  0mm
02:19 61.7 °F /  16.5 °C 57.5 °F /  14.2 °C 30.02in /  1016.5hPa Calm     86% 0.00in /  0mm
02:24 61.6 °F /  16.4 °C 57.4 °F /  14.1 °C 30.02in /  1016.5hPa Calm     86% 0.00in /  0mm
02:29 61.6 °F /  16.4 °C 57.4 °F /  14.1 °C 30.02in /  1016.5hPa Calm     86% 0.00in /  0mm
02:34 61.6 °F /  16.4 °C 57.4 °F /  14.1 °C 30.02in /  1016.5hPa Calm     86% 0.00in /  0mm
02:39 61.7 °F /  16.5 °C 57.5 °F /  14.2 °C 30.02in /  1016.5hPa Calm     86% 0.00in /  0mm
02:44 61.7 °F /  16.5 °C 57.5 °F /  14.2 °C 30.02in /  1016.5hPa Calm     86% 0.00in /  0mm
02:49 61.7 °F /  16.5 °C 57.5 °F /  14.2 °C 30.02in /  1016.5hPa Calm     86% 0.00in /  0mm
02:54 61.6 °F /  16.4 °C 57.4 °F /  14.1 °C 30.02in /  1016.5hPa Calm     86% 0.00in /  0mm
02:59 61.3 °F /  16.3 °C 57.1 °F /  13.9 °C 30.02in /  1016.5hPa Calm     86% 0.00in /  0mm
03:04 61.1 °F /  16.2 °C 56.9 °F /  13.8 °C 30.02in /  1016.5hPa Calm     86% 0.00in /  0mm
03:09 61.0 °F /  16.1 °C 56.8 °F /  13.8 °C 30.02in /  1016.5hPa Calm     86% 0.00in /  0mm
03:14 60.8 °F /  16 °C 56.6 °F /  13.7 °C 30.01in /  1016.1hPa Calm     86% 0.00in /  0mm
03:19 60.7 °F /  15.9 °C 56.5 °F /  13.6 °C 30.01in /  1016.1hPa Calm     86% 0.00in /  0mm
03:24 60.5 °F /  15.8 °C 56.6 °F /  13.7 °C 30.01in /  1016.1hPa Calm     87% 0.00in /  0mm
03:29 60.4 °F /  15.8 °C 56.5 °F /  13.6 °C 30.01in /  1016.1hPa Calm     87% 0.00in /  0mm
03:34 60.3 °F /  15.7 °C 56.4 °F /  13.6 °C 30.01in /  1016.1hPa Calm     87% 0.00in /  0mm
03:39 60.1 °F /  15.6 °C 56.2 °F /  13.4 °C 30.01in /  1016.1hPa Calm     87% 0.00in /  0mm
03:44 59.9 °F /  15.5 °C 56.0 °F /  13.3 °C 30.01in /  1016.1hPa Calm     87% 0.00in /  0mm
03:49 59.8 °F /  15.4 °C 56.2 °F /  13.4 °C 30.01in /  1016.1hPa Calm     88% 0.00in /  0mm
03:54 59.7 °F /  15.4 °C 56.1 °F /  13.4 °C 30.01in /  1016.1hPa Calm     88% 0.00in /  0mm
03:59 59.8 °F /  15.4 °C 56.2 °F /  13.4 °C 30.01in /  1016.1hPa Calm     88% 0.00in /  0mm
04:04 59.7 °F /  15.4 °C 56.1 °F /  13.4 °C 30.01in /  1016.1hPa Calm     88% 0.00in /  0mm
04:09 59.5 °F /  15.3 °C 55.9 °F /  13.3 °C 30.00in /  1015.8hPa Calm     88% 0.00in /  0mm
04:14 59.5 °F /  15.3 °C 55.9 °F /  13.3 °C 30.01in /  1016.1hPa Calm     88% 0.00in /  0mm
04:19 59.6 °F /  15.3 °C 56.4 °F /  13.6 °C 30.00in /  1015.8hPa Calm     89% 0.00in /  0mm
04:24 59.4 °F /  15.2 °C 55.8 °F /  13.2 °C 30.00in /  1015.8hPa Calm     88% 0.00in /  0mm
04:29 59.2 °F /  15.1 °C 55.6 °F /  13.1 °C 30.00in /  1015.8hPa Calm     88% 0.00in /  0mm
04:34 59.1 °F /  15.1 °C 55.9 °F /  13.3 °C 30.00in /  1015.8hPa Calm     89% 0.00in /  0mm
04:39 59.2 °F /  15.1 °C 56.0 °F /  13.3 °C 30.00in /  1015.8hPa Calm     89% 0.00in /  0mm
04:44 59.3 °F /  15.2 °C 56.1 °F /  13.4 °C 30.00in /  1015.8hPa Calm     89% 0.00in /  0mm
04:49 59.3 °F /  15.2 °C 56.1 °F /  13.4 °C 30.01in /  1016.1hPa Calm     89% 0.00in /  0mm
04:54 59.3 °F /  15.2 °C 56.1 °F /  13.4 °C 30.01in /  1016.1hPa Calm     89% 0.00in /  0mm
04:59 59.2 °F /  15.1 °C 55.6 °F /  13.1 °C 30.01in /  1016.1hPa Calm     88% 0.00in /  0mm
05:04 59.1 °F /  15.1 °C 55.9 °F /  13.3 °C 30.00in /  1015.8hPa Calm     89% 0.00in /  0mm
05:09 59.0 °F /  15 °C 55.8 °F /  13.2 °C 30.00in /  1015.8hPa Calm     89% 0.00in /  0mm
05:14 59.0 °F /  15 °C 55.8 °F /  13.2 °C 30.00in /  1015.8hPa Calm     89% 0.00in /  0mm
05:19 59.1 °F /  15.1 °C 55.9 °F /  13.3 °C 30.00in /  1015.8hPa Calm     89% 0.00in /  0mm
05:24 59.1 °F /  15.1 °C 55.9 °F /  13.3 °C 30.00in /  1015.8hPa Calm     89% 0.00in /  0mm
05:29 59.2 °F /  15.1 °C 56.0 °F /  13.3 °C 30.00in /  1015.8hPa Calm     89% 0.00in /  0mm
05:34 59.3 °F /  15.2 °C 56.1 °F /  13.4 °C 30.00in /  1015.8hPa Calm     89% 0.00in /  0mm
05:39 59.4 °F /  15.2 °C 56.2 °F /  13.4 °C 30.00in /  1015.8hPa Calm     89% 0.00in /  0mm
05:44 59.6 °F /  15.3 °C 56.4 °F /  13.6 °C 30.00in /  1015.8hPa Calm     89% 0.00in /  0mm
05:49 59.7 °F /  15.4 °C 56.5 °F /  13.6 °C 30.00in /  1015.8hPa Calm     89% 0.00in /  0mm
05:54 59.8 °F /  15.4 °C 56.2 °F /  13.4 °C 30.00in /  1015.8hPa Calm     88% 0.00in /  0mm
05:59 59.8 °F /  15.4 °C 56.2 °F /  13.4 °C 30.00in /  1015.8hPa Calm     88% 0.00in /  0mm
06:04 59.9 °F /  15.5 °C 56.3 °F /  13.5 °C 30.00in /  1015.8hPa Calm     88% 0.00in /  0mm
06:09 60.0 °F /  15.6 °C 56.4 °F /  13.6 °C 30.00in /  1015.8hPa Calm     88% 0.00in /  0mm
06:14 60.1 °F /  15.6 °C 56.2 °F /  13.4 °C 30.00in /  1015.8hPa Calm     87% 0.00in /  0mm
06:19 60.2 °F /  15.7 °C 56.3 °F /  13.5 °C 30.00in /  1015.8hPa Calm     87% 0.00in /  0mm
06:24 60.2 °F /  15.7 °C 56.3 °F /  13.5 °C 30.00in /  1015.8hPa Calm     87% 0.00in /  0mm
06:29 60.4 °F /  15.8 °C 56.5 °F /  13.6 °C 30.00in /  1015.8hPa Calm     87% 0.00in /  0mm
06:34 60.5 °F /  15.8 °C 56.6 °F /  13.7 °C 30.00in /  1015.8hPa Calm     87% 0.00in /  0mm
06:39 60.6 °F /  15.9 °C 56.4 °F /  13.6 °C 30.00in /  1015.8hPa Calm     86% 0.00in /  0mm
06:44 60.7 °F /  15.9 °C 56.5 °F /  13.6 °C 30.00in /  1015.8hPa Calm     86% 0.00in /  0mm
06:49 60.8 °F /  16 °C 56.6 °F /  13.7 °C 30.00in /  1015.8hPa South 2.0mph /  3.2km/h 3.0mph /  4.8km/h 86% 0.00in /  0mm
06:54 60.9 °F /  16.1 °C 56.7 °F /  13.7 °C 30.00in /  1015.8hPa Calm   3.0mph /  4.8km/h 86% 0.00in /  0mm
06:59 61.0 °F /  16.1 °C 56.8 °F /  13.8 °C 30.00in /  1015.8hPa Calm     86% 0.00in /  0mm
07:04 61.0 °F /  16.1 °C 56.5 °F /  13.6 °C 30.00in /  1015.8hPa Calm     85% 0.00in /  0mm
07:09 61.2 °F /  16.2 °C 56.7 °F /  13.7 °C 30.00in /  1015.8hPa Calm     85% 0.00in /  0mm
07:14 61.3 °F /  16.3 °C 56.8 °F /  13.8 °C 30.01in /  1016.1hPa Calm     85% 0.00in /  0mm
07:19 61.5 °F /  16.4 °C 56.9 °F /  13.8 °C 30.01in /  1016.1hPa Calm     85% 0.00in /  0mm
07:24 61.8 °F /  16.6 °C 57.2 °F /  14 °C 30.01in /  1016.1hPa Calm     85% 0.00in /  0mm
07:29 62.0 °F /  16.7 °C 57.1 °F /  13.9 °C 30.00in /  1015.8hPa Calm     84% 0.00in /  0mm
07:34 62.2 °F /  16.8 °C 57.3 °F /  14.1 °C 30.00in /  1015.8hPa Calm     84% 0.00in /  0mm
07:39 62.4 °F /  16.9 °C 57.5 °F /  14.2 °C 30.01in /  1016.1hPa Calm     84% 0.00in /  0mm
07:44 62.6 °F /  17 °C 57.4 °F /  14.1 °C 30.01in /  1016.1hPa Calm     83% 0.00in /  0mm
07:49 63.0 °F /  17.2 °C 58.1 °F /  14.5 °C 30.01in /  1016.1hPa Calm     84% 0.00in /  0mm
07:54 63.2 °F /  17.3 °C 58.3 °F /  14.6 °C 30.01in /  1016.1hPa Calm     84% 0.00in /  0mm
07:59 63.3 °F /  17.4 °C 58.4 °F /  14.7 °C 30.01in /  1016.1hPa Calm     84% 0.00in /  0mm
08:04 63.5 °F /  17.5 °C 58.9 °F /  14.9 °C 30.01in /  1016.1hPa Calm     85% 0.00in /  0mm
08:09 63.6 °F /  17.6 °C 58.7 °F /  14.8 °C 30.01in /  1016.1hPa Calm     84% 0.00in /  0mm
08:14 63.8 °F /  17.7 °C 59.2 °F /  15.1 °C 30.01in /  1016.1hPa Calm     85% 0.00in /  0mm
08:19 63.9 °F /  17.7 °C 59.0 °F /  15 °C 30.00in /  1015.8hPa Calm     84% 0.00in /  0mm
08:24 63.9 °F /  17.7 °C 59.3 °F /  15.2 °C 30.00in /  1015.8hPa Calm     85% 0.00in /  0mm
08:29 63.8 °F /  17.7 °C 59.2 °F /  15.1 °C 30.00in /  1015.8hPa Calm     85% 0.00in /  0mm
08:34 63.8 °F /  17.7 °C 59.2 °F /  15.1 °C 30.00in /  1015.8hPa Calm     85% 0.00in /  0mm
08:39 63.9 °F /  17.7 °C 59.3 °F /  15.2 °C 30.00in /  1015.8hPa Calm     85% 0.00in /  0mm
08:49 63.8 °F /  17.7 °C 58.9 °F /  14.9 °C 30.00in /  1015.8hPa Calm     84% 0.00in /  0mm
08:54 64.0 °F /  17.8 °C 59.4 °F /  15.2 °C 30.00in /  1015.8hPa Calm     85% 0.00in /  0mm
08:59 64.0 °F /  17.8 °C 59.4 °F /  15.2 °C 30.00in /  1015.8hPa Calm     85% 0.00in /  0mm
09:04 64.0 °F /  17.8 °C 59.4 °F /  15.2 °C 30.00in /  1015.8hPa Calm   3.0mph /  4.8km/h 85% 0.00in /  0mm
09:09 64.2 °F /  17.9 °C 59.6 °F /  15.3 °C 30.00in /  1015.8hPa Calm   3.0mph /  4.8km/h 85% 0.00in /  0mm
09:14 64.4 °F /  18 °C 59.8 °F /  15.4 °C 30.00in /  1015.8hPa Calm   2.0mph /  3.2km/h 85% 0.00in /  0mm
09:19 64.7 °F /  18.2 °C 60.1 °F /  15.6 °C 30.00in /  1015.8hPa Calm     85% 0.00in /  0mm
09:24 65.0 °F /  18.3 °C 60.0 °F /  15.6 °C 29.99in /  1015.5hPa SE 1.0mph /  1.6km/h 2.0mph /  3.2km/h 84% 0.00in /  0mm
09:29 65.4 °F /  18.6 °C 60.4 °F /  15.8 °C 29.99in /  1015.5hPa SE 2.0mph /  3.2km/h 3.0mph /  4.8km/h 84% 0.00in /  0mm
09:34 65.5 °F /  18.6 °C 60.2 °F /  15.7 °C 29.99in /  1015.5hPa Calm   3.0mph /  4.8km/h 83% 0.00in /  0mm
09:39 65.8 °F /  18.8 °C 60.5 °F /  15.8 °C 29.99in /  1015.5hPa Calm     83% 0.00in /  0mm
09:44 66.3 °F /  19.1 °C 60.6 °F /  15.9 °C 29.99in /  1015.5hPa Calm     82% 0.00in /  0mm
09:49 66.5 °F /  19.2 °C 60.5 °F /  15.8 °C 29.99in /  1015.5hPa Calm     81% 0.00in /  0mm
09:54 67.0 °F /  19.4 °C 61.0 °F /  16.1 °C 29.99in /  1015.5hPa Calm     81% 0.00in /  0mm
09:59 67.7 °F /  19.8 °C 61.0 °F /  16.1 °C 29.99in /  1015.5hPa Calm     79% 0.00in /  0mm
10:04 68.8 °F /  20.4 °C 61.7 °F /  16.5 °C 29.99in /  1015.5hPa Calm     78% 0.00in /  0mm
10:09 69.7 °F /  20.9 °C 62.2 °F /  16.8 °C 29.99in /  1015.5hPa Calm     77% 0.00in /  0mm
10:14 70.3 °F /  21.3 °C 62.4 °F /  16.9 °C 29.99in /  1015.5hPa Calm     76% 0.00in /  0mm
10:19 69.7 °F /  20.9 °C 61.8 °F /  16.6 °C 29.98in /  1015.1hPa Calm   2.0mph /  3.2km/h 76% 0.00in /  0mm
10:24 70.1 °F /  21.2 °C 62.2 °F /  16.8 °C 29.98in /  1015.1hPa Calm   2.0mph /  3.2km/h 76% 0.00in /  0mm
10:29 70.2 °F /  21.2 °C 61.5 °F /  16.4 °C 29.98in /  1015.1hPa Calm   3.0mph /  4.8km/h 74% 0.00in /  0mm
10:34 70.6 °F /  21.4 °C 62.3 °F /  16.8 °C 29.99in /  1015.5hPa Calm   4.0mph /  6.4km/h 75% 0.00in /  0mm
10:39 71.3 °F /  21.8 °C 62.6 °F /  17 °C 29.99in /  1015.5hPa Calm   4.0mph /  6.4km/h 74% 0.00in /  0mm
10:44 71.2 °F /  21.8 °C 62.1 °F /  16.7 °C 29.99in /  1015.5hPa SW 1.0mph /  1.6km/h 5.0mph /  8km/h 73% 0.00in /  0mm
10:49 71.9 °F /  22.2 °C 63.2 °F /  17.3 °C 29.98in /  1015.1hPa SW 1.0mph /  1.6km/h 5.0mph /  8km/h 74% 0.00in /  0mm
10:54 72.7 °F /  22.6 °C 63.5 °F /  17.5 °C 29.98in /  1015.1hPa Calm   2.0mph /  3.2km/h 73% 0.00in /  0mm
11:04 73.3 °F /  22.9 °C 62.9 °F /  17.2 °C 29.98in /  1015.1hPa Calm   4.0mph /  6.4km/h 70% 0.00in /  0mm
11:09 73.5 °F /  23.1 °C 63.5 °F /  17.5 °C 29.98in /  1015.1hPa Calm   2.0mph /  3.2km/h 71% 0.00in /  0mm
11:14 73.3 °F /  22.9 °C 62.9 °F /  17.2 °C 29.98in /  1015.1hPa SE 1.0mph /  1.6km/h 2.0mph /  3.2km/h 70% 0.00in /  0mm
11:19 73.4 °F /  23 °C 62.6 °F /  17 °C 29.98in /  1015.1hPa SSE 1.0mph /  1.6km/h 4.0mph /  6.4km/h 69% 0.00in /  0mm
11:24 73.0 °F /  22.8 °C 61.8 °F /  16.6 °C 29.98in /  1015.1hPa SE 1.0mph /  1.6km/h 4.0mph /  6.4km/h 68% 0.00in /  0mm
11:29 74.2 °F /  23.4 °C 63.4 °F /  17.4 °C 29.98in /  1015.1hPa East 1.0mph /  1.6km/h 4.0mph /  6.4km/h 69% 0.00in /  0mm
11:34 74.6 °F /  23.7 °C 61.2 °F /  16.2 °C 29.98in /  1015.1hPa NE 2.0mph /  3.2km/h 4.0mph /  6.4km/h 63% 0.00in /  0mm
11:39 74.8 °F /  23.8 °C 61.4 °F /  16.3 °C 29.98in /  1015.1hPa NNE 1.0mph /  1.6km/h 4.0mph /  6.4km/h 63% 0.00in /  0mm
11:44 75.2 °F /  24 °C 61.7 °F /  16.5 °C 29.98in /  1015.1hPa NW 1.0mph /  1.6km/h 3.0mph /  4.8km/h 63% 0.00in /  0mm
11:49 75.2 °F /  24 °C 61.3 °F /  16.3 °C 29.97in /  1014.8hPa NNE 2.0mph /  3.2km/h 4.0mph /  6.4km/h 62% 0.00in /  0mm
11:54 75.5 °F /  24.2 °C 63.8 °F /  17.7 °C 29.97in /  1014.8hPa NNE 2.0mph /  3.2km/h 5.0mph /  8km/h 67% 0.00in /  0mm
11:59 76.0 °F /  24.4 °C 63.8 °F /  17.7 °C 29.97in /  1014.8hPa East 1.0mph /  1.6km/h 5.0mph /  8km/h 66% 0.00in /  0mm
12:09 76.6 °F /  24.8 °C 60.7 °F /  15.9 °C 29.97in /  1014.8hPa NW 2.0mph /  3.2km/h 6.0mph /  9.7km/h 58% 0.00in /  0mm
12:14 76.7 °F /  24.8 °C 61.3 °F /  16.3 °C 29.97in /  1014.8hPa WNW 1.0mph /  1.6km/h 4.0mph /  6.4km/h 59% 0.00in /  0mm
12:19 76.4 °F /  24.7 °C 62.9 °F /  17.2 °C 29.96in /  1014.4hPa West 3.0mph /  4.8km/h 3.0mph /  4.8km/h 63% 0.00in /  0mm
12:24 76.7 °F /  24.8 °C 61.3 °F /  16.3 °C 29.96in /  1014.4hPa West 1.0mph /  1.6km/h 3.0mph /  4.8km/h 59% 0.00in /  0mm
12:29 75.9 °F /  24.4 °C 60.5 °F /  15.8 °C 29.96in /  1014.4hPa NW 2.0mph /  3.2km/h 5.0mph /  8km/h 59% 0.00in /  0mm
12:34 76.4 °F /  24.7 °C 63.3 °F /  17.4 °C 29.96in /  1014.4hPa NNW 2.0mph /  3.2km/h 5.0mph /  8km/h 64% 0.00in /  0mm
12:39 76.4 °F /  24.7 °C 59.5 °F /  15.3 °C 29.96in /  1014.4hPa NNW 2.0mph /  3.2km/h 4.0mph /  6.4km/h 56% 0.00in /  0mm
12:44 76.3 °F /  24.6 °C 60.9 °F /  16.1 °C 29.96in /  1014.4hPa NW 2.0mph /  3.2km/h 5.0mph /  8km/h 59% 0.00in /  0mm
12:49 76.0 °F /  24.4 °C 60.2 °F /  15.7 °C 29.96in /  1014.4hPa Calm   4.0mph /  6.4km/h 58% 0.00in /  0mm
12:54 75.9 °F /  24.4 °C 59.6 °F /  15.3 °C 29.95in /  1014.1hPa WSW 3.0mph /  4.8km/h 4.0mph /  6.4km/h 57% 0.00in /  0mm
12:59 75.6 °F /  24.2 °C 59.8 °F /  15.4 °C 29.95in /  1014.1hPa West 3.0mph /  4.8km/h 3.0mph /  4.8km/h 58% 0.00in /  0mm
13:04 75.7 °F /  24.3 °C 60.8 °F /  16 °C 29.95in /  1014.1hPa Calm   4.0mph /  6.4km/h 60% 0.00in /  0mm
13:09 76.0 °F /  24.4 °C 61.1 °F /  16.2 °C 29.95in /  1014.1hPa WNW 2.0mph /  3.2km/h 5.0mph /  8km/h 60% 0.00in /  0mm
13:14 75.9 °F /  24.4 °C 61.0 °F /  16.1 °C 29.95in /  1014.1hPa Calm   3.0mph /  4.8km/h 60% 0.00in /  0mm
13:19 75.4 °F /  24.1 °C 58.6 °F /  14.8 °C 29.95in /  1014.1hPa Calm   3.0mph /  4.8km/h 56% 0.00in /  0mm
13:24 75.5 °F /  24.2 °C 58.7 °F /  14.8 °C 29.94in /  1013.8hPa WNW 1.0mph /  1.6km/h 3.0mph /  4.8km/h 56% 0.00in /  0mm
13:29 75.6 °F /  24.2 °C 59.3 °F /  15.2 °C 29.94in /  1013.8hPa WNW 1.0mph /  1.6km/h 3.0mph /  4.8km/h 57% 0.00in /  0mm
13:34 75.8 °F /  24.3 °C 60.4 °F /  15.8 °C 29.94in /  1013.8hPa West 2.0mph /  3.2km/h 6.0mph /  9.7km/h 59% 0.00in /  0mm
13:39 75.8 °F /  24.3 °C 60.9 °F /  16.1 °C 29.94in /  1013.8hPa WNW 2.0mph /  3.2km/h 6.0mph /  9.7km/h 60% 0.00in /  0mm
13:44 75.2 °F /  24 °C 59.9 °F /  15.5 °C 29.94in /  1013.8hPa WNW 2.0mph /  3.2km/h 5.0mph /  8km/h 59% 0.00in /  0mm
13:49 75.4 °F /  24.1 °C 61.0 °F /  16.1 °C 29.94in /  1013.8hPa Calm   4.0mph /  6.4km/h 61% 0.00in /  0mm
13:54 75.7 °F /  24.3 °C 60.8 °F /  16 °C 29.93in /  1013.4hPa West 2.0mph /  3.2km/h 5.0mph /  8km/h 60% 0.00in /  0mm
13:59 75.7 °F /  24.3 °C 60.4 °F /  15.8 °C 29.93in /  1013.4hPa WNW 2.0mph /  3.2km/h 5.0mph /  8km/h 59% 0.00in /  0mm
14:04 75.6 °F /  24.2 °C 61.2 °F /  16.2 °C 29.93in /  1013.4hPa WNW 2.0mph /  3.2km/h 5.0mph /  8km/h 61% 0.00in /  0mm
14:09 75.4 °F /  24.1 °C 61.9 °F /  16.6 °C 29.93in /  1013.4hPa NW 2.0mph /  3.2km/h 6.0mph /  9.7km/h 63% 0.00in /  0mm
14:14 75.3 °F /  24.1 °C 60.9 °F /  16.1 °C 29.92in /  1013.1hPa WNW 2.0mph /  3.2km/h 5.0mph /  8km/h 61% 0.00in /  0mm
14:19 75.8 °F /  24.3 °C 61.8 °F /  16.6 °C 29.92in /  1013.1hPa WSW 3.0mph /  4.8km/h 6.0mph /  9.7km/h 62% 0.00in /  0mm
14:24 76.4 °F /  24.7 °C 62.4 °F /  16.9 °C 29.92in /  1013.1hPa West 4.0mph /  6.4km/h 6.0mph /  9.7km/h 62% 0.00in /  0mm
14:29 76.4 °F /  24.7 °C 62.4 °F /  16.9 °C 29.92in /  1013.1hPa WNW 3.0mph /  4.8km/h 8.0mph /  12.9km/h 62% 0.00in /  0mm
14:34 75.8 °F /  24.3 °C 61.8 °F /  16.6 °C 29.92in /  1013.1hPa NNW 3.0mph /  4.8km/h 8.0mph /  12.9km/h 62% 0.00in /  0mm
14:39 75.9 °F /  24.4 °C 61.9 °F /  16.6 °C 29.92in /  1013.1hPa North 3.0mph /  4.8km/h 6.0mph /  9.7km/h 62% 0.00in /  0mm
14:44 75.9 °F /  24.4 °C 61.0 °F /  16.1 °C 29.92in /  1013.1hPa NNW 2.0mph /  3.2km/h 6.0mph /  9.7km/h 60% 0.00in /  0mm
14:49 75.7 °F /  24.3 °C 60.8 °F /  16 °C 29.92in /  1013.1hPa NW 2.0mph /  3.2km/h 5.0mph /  8km/h 60% 0.00in /  0mm
14:54 75.1 °F /  23.9 °C 64.2 °F /  17.9 °C 29.92in /  1013.1hPa North 2.0mph /  3.2km/h 8.0mph /  12.9km/h 69% 0.00in /  0mm
14:59 73.8 °F /  23.2 °C 64.6 °F /  18.1 °C 29.92in /  1013.1hPa NNW 4.0mph /  6.4km/h 9.0mph /  14.5km/h 73% 0.00in /  0mm
15:04 72.7 °F /  22.6 °C 63.9 °F /  17.7 °C 29.92in /  1013.1hPa North 4.0mph /  6.4km/h 10.0mph /  16.1km/h 74% 0.00in /  0mm
15:09 71.6 °F /  22 °C 63.6 °F /  17.6 °C 29.92in /  1013.1hPa NNW 5.0mph /  8km/h 12.0mph /  19.3km/h 76% 0.00in /  0mm
15:14 70.6 °F /  21.4 °C 63.4 °F /  17.4 °C 29.93in /  1013.4hPa North 5.0mph /  8km/h 12.0mph /  19.3km/h 78% 0.00in /  0mm
15:19 70.2 °F /  21.2 °C 63.4 °F /  17.4 °C 29.93in /  1013.4hPa ENE 3.0mph /  4.8km/h 12.0mph /  19.3km/h 79% 0.00in /  0mm
15:24 69.7 °F /  20.9 °C 63.3 °F /  17.4 °C 29.93in /  1013.4hPa NNE 2.0mph /  3.2km/h 10.0mph /  16.1km/h 80% 0.00in /  0mm
15:29 69.4 °F /  20.8 °C 63.0 °F /  17.2 °C 29.93in /  1013.4hPa NNE 1.0mph /  1.6km/h 10.0mph /  16.1km/h 80% 0.00in /  0mm
15:34 69.0 °F /  20.6 °C 62.9 °F /  17.2 °C 29.93in /  1013.4hPa North 4.0mph /  6.4km/h 11.0mph /  17.7km/h 81% 0.00in /  0mm
15:39 68.8 °F /  20.4 °C 62.7 °F /  17.1 °C 29.93in /  1013.4hPa North 4.0mph /  6.4km/h 11.0mph /  17.7km/h 81% 0.00in /  0mm
15:44 68.7 °F /  20.4 °C 63.0 °F /  17.2 °C 29.93in /  1013.4hPa North 3.0mph /  4.8km/h 12.0mph /  19.3km/h 82% 0.00in /  0mm
15:49 68.7 °F /  20.4 °C 63.0 °F /  17.2 °C 29.93in /  1013.4hPa NNW 5.0mph /  8km/h 9.0mph /  14.5km/h 82% 0.00in /  0mm
15:54 68.7 °F /  20.4 °C 63.0 °F /  17.2 °C 29.93in /  1013.4hPa North 1.0mph /  1.6km/h 9.0mph /  14.5km/h 82% 0.00in /  0mm
15:59 69.0 °F /  20.6 °C 63.3 °F /  17.4 °C 29.93in /  1013.4hPa North 7.0mph /  11.3km/h 8.0mph /  12.9km/h 82% 0.00in /  0mm
16:04 68.8 °F /  20.4 °C 62.7 °F /  17.1 °C 29.94in /  1013.8hPa North 4.0mph /  6.4km/h 11.0mph /  17.7km/h 81% 0.00in /  0mm
16:09 68.8 °F /  20.4 °C 63.1 °F /  17.3 °C 29.94in /  1013.8hPa North 5.0mph /  8km/h 11.0mph /  17.7km/h 82% 0.00in /  0mm
16:14 68.8 °F /  20.4 °C 63.1 °F /  17.3 °C 29.94in /  1013.8hPa North 4.0mph /  6.4km/h 9.0mph /  14.5km/h 82% 0.00in /  0mm
16:19 68.8 °F /  20.4 °C 62.7 °F /  17.1 °C 29.94in /  1013.8hPa NNW 4.0mph /  6.4km/h 9.0mph /  14.5km/h 81% 0.00in /  0mm
16:24 68.8 °F /  20.4 °C 62.7 °F /  17.1 °C 29.94in /  1013.8hPa NNW 3.0mph /  4.8km/h 9.0mph /  14.5km/h 81% 0.00in /  0mm
16:29 69.2 °F /  20.7 °C 62.8 °F /  17.1 °C 29.94in /  1013.8hPa North 2.0mph /  3.2km/h 5.0mph /  8km/h 80% 0.00in /  0mm
16:34 69.1 °F /  20.6 °C 61.9 °F /  16.6 °C 29.94in /  1013.8hPa NE 4.0mph /  6.4km/h 6.0mph /  9.7km/h 78% 0.00in /  0mm
16:39 69.2 °F /  20.7 °C 62.4 °F /  16.9 °C 29.94in /  1013.8hPa North 2.0mph /  3.2km/h 6.0mph /  9.7km/h 79% 0.00in /  0mm
16:44 68.9 °F /  20.5 °C 61.8 °F /  16.6 °C 29.94in /  1013.8hPa North 3.0mph /  4.8km/h 6.0mph /  9.7km/h 78% 0.00in /  0mm
16:49 68.6 °F /  20.3 °C 61.5 °F /  16.4 °C 29.95in /  1014.1hPa NE 3.0mph /  4.8km/h 6.0mph /  9.7km/h 78% 0.00in /  0mm
16:54 68.4 °F /  20.2 °C 61.6 °F /  16.4 °C 29.95in /  1014.1hPa NE 2.0mph /  3.2km/h 5.0mph /  8km/h 79% 0.00in /  0mm
16:59 68.6 °F /  20.3 °C 61.8 °F /  16.6 °C 29.94in /  1013.8hPa NNE 2.0mph /  3.2km/h 4.0mph /  6.4km/h 79% 0.00in /  0mm
17:04 68.6 °F /  20.3 °C 61.8 °F /  16.6 °C 29.94in /  1013.8hPa NNE 3.0mph /  4.8km/h 7.0mph /  11.3km/h 79% 0.00in /  0mm
17:09 68.3 °F /  20.2 °C 61.5 °F /  16.4 °C 29.94in /  1013.8hPa NE 3.0mph /  4.8km/h 11.0mph /  17.7km/h 79% 0.00in /  0mm
17:14 68.0 °F /  20 °C 61.2 °F /  16.2 °C 29.94in /  1013.8hPa NE 4.0mph /  6.4km/h 11.0mph /  17.7km/h 79% 0.00in /  0mm
17:19 67.7 °F /  19.8 °C 61.0 °F /  16.1 °C 29.94in /  1013.8hPa NE 5.0mph /  8km/h 12.0mph /  19.3km/h 79% 0.00in /  0mm
17:24 67.7 °F /  19.8 °C 61.3 °F /  16.3 °C 29.95in /  1014.1hPa ENE 5.0mph /  8km/h 12.0mph /  19.3km/h 80% 0.00in /  0mm
17:29 67.4 °F /  19.7 °C 61.0 °F /  16.1 °C 29.94in /  1013.8hPa ENE 4.0mph /  6.4km/h 11.0mph /  17.7km/h 80% 0.00in /  0mm
17:34 67.0 °F /  19.4 °C 61.0 °F /  16.1 °C 29.94in /  1013.8hPa NE 6.0mph /  9.7km/h 13.0mph /  20.9km/h 81% 0.00in /  0mm
17:39 66.8 °F /  19.3 °C 60.8 °F /  16 °C 29.94in /  1013.8hPa NE 6.0mph /  9.7km/h 13.0mph /  20.9km/h 81% 0.00in /  0mm
17:44 66.5 °F /  19.2 °C 60.5 °F /  15.8 °C 29.94in /  1013.8hPa NE 2.0mph /  3.2km/h 10.0mph /  16.1km/h 81% 0.00in /  0mm
17:49 66.4 °F /  19.1 °C 60.7 °F /  15.9 °C 29.94in /  1013.8hPa NE 9.0mph /  14.5km/h 9.0mph /  14.5km/h 82% 0.00in /  0mm
17:54 66.3 °F /  19.1 °C 60.6 °F /  15.9 °C 29.94in /  1013.8hPa NE 4.0mph /  6.4km/h 8.0mph /  12.9km/h 82% 0.00in /  0mm
17:59 66.4 °F /  19.1 °C 60.7 °F /  15.9 °C 29.93in /  1013.4hPa Calm   4.0mph /  6.4km/h 82% 0.00in /  0mm
18:04 66.3 °F /  19.1 °C 60.6 °F /  15.9 °C 29.94in /  1013.8hPa NNE 1.0mph /  1.6km/h 4.0mph /  6.4km/h 82% 0.00in /  0mm
18:09 66.2 °F /  19 °C 60.5 °F /  15.8 °C 29.94in /  1013.8hPa NNW 1.0mph /  1.6km/h 6.0mph /  9.7km/h 82% 0.00in /  0mm
18:14 66.0 °F /  18.9 °C 60.3 °F /  15.7 °C 29.94in /  1013.8hPa North 1.0mph /  1.6km/h 6.0mph /  9.7km/h 82% 0.00in /  0mm
18:19 66.0 °F /  18.9 °C 60.3 °F /  15.7 °C 29.93in /  1013.4hPa NNE 2.0mph /  3.2km/h 7.0mph /  11.3km/h 82% 0.00in /  0mm
18:29 66.1 °F /  18.9 °C 60.8 °F /  16 °C 29.93in /  1013.4hPa ENE 3.0mph /  4.8km/h 8.0mph /  12.9km/h 83% 0.00in /  0mm
18:34 65.9 °F /  18.8 °C 60.6 °F /  15.9 °C 29.93in /  1013.4hPa NE 2.0mph /  3.2km/h 8.0mph /  12.9km/h 83% 0.00in /  0mm
18:39 66.1 °F /  18.9 °C 60.8 °F /  16 °C 29.93in /  1013.4hPa NE 3.0mph /  4.8km/h 7.0mph /  11.3km/h 83% 0.00in /  0mm
18:44 66.1 °F /  18.9 °C 60.8 °F /  16 °C 29.94in /  1013.8hPa ENE 4.0mph /  6.4km/h 7.0mph /  11.3km/h 83% 0.00in /  0mm
18:49 66.5 °F /  19.2 °C 61.2 °F /  16.2 °C 29.94in /  1013.8hPa Calm   5.0mph /  8km/h 83% 0.00in /  0mm
18:54 66.5 °F /  19.2 °C 60.8 °F /  16 °C 29.94in /  1013.8hPa Calm     82% 0.00in /  0mm
18:59 66.5 °F /  19.2 °C 60.8 °F /  16 °C 29.94in /  1013.8hPa ENE 3.0mph /  4.8km/h 4.0mph /  6.4km/h 82% 0.00in /  0mm
19:04 66.3 °F /  19.1 °C 60.6 °F /  15.9 °C 29.94in /  1013.8hPa ENE 5.0mph /  8km/h 8.0mph /  12.9km/h 82% 0.00in /  0mm
19:09 66.3 °F /  19.1 °C 60.6 °F /  15.9 °C 29.93in /  1013.4hPa NE 2.0mph /  3.2km/h 5.0mph /  8km/h 82% 0.00in /  0mm
19:14 66.2 °F /  19 °C 60.5 °F /  15.8 °C 29.93in /  1013.4hPa ENE 2.0mph /  3.2km/h 5.0mph /  8km/h 82% 0.00in /  0mm
19:19 66.0 °F /  18.9 °C 60.3 °F /  15.7 °C 29.94in /  1013.8hPa ENE 1.0mph /  1.6km/h 5.0mph /  8km/h 82% 0.00in /  0mm
19:24 65.9 °F /  18.8 °C 60.6 °F /  15.9 °C 29.94in /  1013.8hPa ENE 1.0mph /  1.6km/h 5.0mph /  8km/h 83% 0.00in /  0mm
19:29 65.8 °F /  18.8 °C 60.5 °F /  15.8 °C 29.94in /  1013.8hPa Calm     83% 0.00in /  0mm
19:34 65.8 °F /  18.8 °C 60.5 °F /  15.8 °C 29.94in /  1013.8hPa Calm     83% 0.00in /  0mm
19:39 65.9 °F /  18.8 °C 60.2 °F /  15.7 °C 29.94in /  1013.8hPa Calm   4.0mph /  6.4km/h 82% 0.00in /  0mm
19:44 65.7 °F /  18.7 °C 60.1 °F /  15.6 °C 29.94in /  1013.8hPa Calm   3.0mph /  4.8km/h 82% 0.00in /  0mm
19:49 65.8 °F /  18.8 °C 60.2 °F /  15.7 °C 29.94in /  1013.8hPa ENE 1.0mph /  1.6km/h 3.0mph /  4.8km/h 82% 0.00in /  0mm
19:54 65.8 °F /  18.8 °C 59.8 °F /  15.4 °C 29.94in /  1013.8hPa Calm   3.0mph /  4.8km/h 81% 0.00in /  0mm
19:59 65.8 °F /  18.8 °C 59.8 °F /  15.4 °C 29.95in /  1014.1hPa Calm     81% 0.00in /  0mm
20:04 65.7 °F /  18.7 °C 59.7 °F /  15.4 °C 29.95in /  1014.1hPa Calm     81% 0.00in /  0mm
20:09 65.6 °F /  18.7 °C 60.0 °F /  15.6 °C 29.95in /  1014.1hPa Calm     82% 0.00in /  0mm
20:14 65.6 °F /  18.7 °C 60.0 °F /  15.6 °C 29.95in /  1014.1hPa Calm     82% 0.00in /  0mm
20:19 65.5 °F /  18.6 °C 59.9 °F /  15.5 °C 29.95in /  1014.1hPa Calm     82% 0.00in /  0mm
20:24 65.5 °F /  18.6 °C 59.9 °F /  15.5 °C 29.95in /  1014.1hPa Calm     82% 0.00in /  0mm
20:29 65.4 °F /  18.6 °C 59.8 °F /  15.4 °C 29.95in /  1014.1hPa Calm   3.0mph /  4.8km/h 82% 0.00in /  0mm
20:34 65.3 °F /  18.5 °C 60.0 °F /  15.6 °C 29.95in /  1014.1hPa NE 1.0mph /  1.6km/h 4.0mph /  6.4km/h 83% 0.00in /  0mm
20:39 65.2 °F /  18.4 °C 59.9 °F /  15.5 °C 29.96in /  1014.4hPa NE 1.0mph /  1.6km/h 4.0mph /  6.4km/h 83% 0.00in /  0mm
20:44 65.1 °F /  18.4 °C 59.8 °F /  15.4 °C 29.96in /  1014.4hPa Calm   1.0mph /  1.6km/h 83% 0.00in /  0mm
20:49 65.1 °F /  18.4 °C 59.8 °F /  15.4 °C 29.96in /  1014.4hPa Calm     83% 0.00in /  0mm
20:54 65.1 °F /  18.4 °C 60.1 °F /  15.6 °C 29.96in /  1014.4hPa Calm   3.0mph /  4.8km/h 84% 0.00in /  0mm
20:59 65.0 °F /  18.3 °C 60.0 °F /  15.6 °C 29.96in /  1014.4hPa Calm   4.0mph /  6.4km/h 84% 0.00in /  0mm
21:04 64.9 °F /  18.3 °C 59.9 °F /  15.5 °C 29.97in /  1014.8hPa Calm     84% 0.00in /  0mm
21:09 64.8 °F /  18.2 °C 59.9 °F /  15.5 °C 29.97in /  1014.8hPa Calm     84% 0.00in /  0mm
21:14 64.7 °F /  18.2 °C 59.8 °F /  15.4 °C 29.97in /  1014.8hPa Calm     84% 0.00in /  0mm
21:19 64.5 °F /  18.1 °C 59.9 °F /  15.5 °C 29.97in /  1014.8hPa Calm     85% 0.00in /  0mm
21:24 64.5 °F /  18.1 °C 59.9 °F /  15.5 °C 29.97in /  1014.8hPa Calm     85% 0.00in /  0mm
21:29 64.4 °F /  18 °C 59.8 °F /  15.4 °C 29.97in /  1014.8hPa Calm     85% 0.00in /  0mm
21:34 64.2 °F /  17.9 °C 59.6 °F /  15.3 °C 29.97in /  1014.8hPa Calm     85% 0.00in /  0mm
21:39 64.1 °F /  17.8 °C 59.5 °F /  15.3 °C 29.96in /  1014.4hPa Calm     85% 0.00in /  0mm
21:44 63.9 °F /  17.7 °C 59.3 °F /  15.2 °C 29.96in /  1014.4hPa Calm     85% 0.00in /  0mm
21:49 63.7 °F /  17.6 °C 59.4 °F /  15.2 °C 29.97in /  1014.8hPa Calm     86% 0.00in /  0mm
21:54 63.6 °F /  17.6 °C 59.3 °F /  15.2 °C 29.97in /  1014.8hPa Calm     86% 0.00in /  0mm
21:59 63.4 °F /  17.4 °C 59.1 °F /  15.1 °C 29.97in /  1014.8hPa Calm     86% 0.00in /  0mm
22:04 63.4 °F /  17.4 °C 59.5 °F /  15.3 °C 29.97in /  1014.8hPa Calm     87% 0.00in /  0mm
22:09 63.3 °F /  17.4 °C 59.4 °F /  15.2 °C 29.97in /  1014.8hPa Calm     87% 0.00in /  0mm
22:14 63.4 °F /  17.4 °C 59.5 °F /  15.3 °C 29.97in /  1014.8hPa Calm     87% 0.00in /  0mm
22:19 63.4 °F /  17.4 °C 59.5 °F /  15.3 °C 29.97in /  1014.8hPa Calm     87% 0.00in /  0mm
22:24 63.3 °F /  17.4 °C 59.4 °F /  15.2 °C 29.97in /  1014.8hPa Calm     87% 0.00in /  0mm
22:29 63.4 °F /  17.4 °C 59.5 °F /  15.3 °C 29.97in /  1014.8hPa Calm     87% 0.00in /  0mm
22:34 63.5 °F /  17.5 °C 59.6 °F /  15.3 °C 29.97in /  1014.8hPa Calm     87% 0.00in /  0mm
22:39 63.6 °F /  17.6 °C 59.7 °F /  15.4 °C 29.97in /  1014.8hPa Calm     87% 0.00in /  0mm
22:44 63.5 °F /  17.5 °C 59.6 °F /  15.3 °C 29.97in /  1014.8hPa Calm     87% 0.00in /  0mm
22:49 63.4 °F /  17.4 °C 59.5 °F /  15.3 °C 29.97in /  1014.8hPa Calm     87% 0.00in /  0mm
22:54 63.3 °F /  17.4 °C 59.4 °F /  15.2 °C 29.97in /  1014.8hPa Calm     87% 0.00in /  0mm
22:59 63.1 °F /  17.3 °C 59.2 °F /  15.1 °C 29.97in /  1014.8hPa Calm     87% 0.00in /  0mm
23:04 62.9 °F /  17.2 °C 59.0 °F /  15 °C 29.97in /  1014.8hPa Calm     87% 0.00in /  0mm
23:09 62.6 °F /  17 °C 59.0 °F /  15 °C 29.97in /  1014.8hPa Calm     88% 0.00in /  0mm
23:24 62.2 °F /  16.8 °C 58.9 °F /  14.9 °C 29.97in /  1014.8hPa Calm     89% 0.00in /  0mm
23:29 62.1 °F /  16.7 °C 58.8 °F /  14.9 °C 29.97in /  1014.8hPa Calm     89% 0.00in /  0mm
23:34 62.0 °F /  16.7 °C 58.7 °F /  14.8 °C 29.97in /  1014.8hPa Calm     89% 0.00in /  0mm
23:39 61.9 °F /  16.6 °C 58.6 °F /  14.8 °C 29.97in /  1014.8hPa Calm     89% 0.00in /  0mm
23:44 61.9 °F /  16.6 °C 58.6 °F /  14.8 °C 29.97in /  1014.8hPa Calm     89% 0.00in /  0mm
23:49 61.6 °F /  16.4 °C 58.3 °F /  14.6 °C 29.97in /  1014.8hPa Calm     89% 0.00in /  0mm
23:54 61.5 °F /  16.4 °C 58.2 °F /  14.6 °C 29.97in /  1014.8hPa Calm     89% 0.00in /  0mm
23:59 61.4 °F /  16.3 °C 58.1 °F /  14.5 °C 29.97in /  1014.8hPa Calm     89% 0.00in /  0mm
Buffalo, New York, USA
Compliments of Weather Underground - 2.5 mb